sensor_id;sensor_type;location;lat;lon;timestamp;P1;durP1;ratioP1;P2;durP2;ratioP2
81712;SDS011;71124;44.102;3.080;2023-08-17T00:01:37;5.00;;;2.50;;
81712;SDS011;71124;44.102;3.080;2023-08-17T00:04:02;3.33;;;2.20;;
81712;SDS011;71124;44.102;3.080;2023-08-17T00:06:27;2.72;;;2.33;;
81712;SDS011;71124;44.102;3.080;2023-08-17T00:08:53;4.77;;;2.50;;
81712;SDS011;71124;44.102;3.080;2023-08-17T00:11:18;3.73;;;2.40;;
81712;SDS011;71124;44.102;3.080;2023-08-17T00:13:43;4.20;;;2.40;;
81712;SDS011;71124;44.102;3.080;2023-08-17T00:16:09;5.13;;;2.17;;
81712;SDS011;71124;44.102;3.080;2023-08-17T00:18:34;3.70;;;2.67;;
81712;SDS011;71124;44.102;3.080;2023-08-17T00:20:59;2.83;;;2.40;;
81712;SDS011;71124;44.102;3.080;2023-08-17T00:23:25;4.55;;;2.20;;
81712;SDS011;71124;44.102;3.080;2023-08-17T00:25:50;3.45;;;2.10;;
81712;SDS011;71124;44.102;3.080;2023-08-17T00:28:15;4.10;;;2.15;;
81712;SDS011;71124;44.102;3.080;2023-08-17T00:30:41;3.70;;;2.47;;
81712;SDS011;71124;44.102;3.080;2023-08-17T00:33:06;3.33;;;2.00;;
81712;SDS011;71124;44.102;3.080;2023-08-17T00:35:31;5.10;;;2.50;;
81712;SDS011;71124;44.102;3.080;2023-08-17T00:37:57;3.65;;;2.33;;
81712;SDS011;71124;44.102;3.080;2023-08-17T00:40:23;5.35;;;2.53;;
81712;SDS011;71124;44.102;3.080;2023-08-17T00:42:48;3.67;;;2.23;;
81712;SDS011;71124;44.102;3.080;2023-08-17T00:45:14;4.93;;;2.17;;
81712;SDS011;71124;44.102;3.080;2023-08-17T00:47:39;4.65;;;2.40;;
81712;SDS011;71124;44.102;3.080;2023-08-17T00:50:05;2.97;;;2.37;;
81712;SDS011;71124;44.102;3.080;2023-08-17T00:52:30;4.90;;;2.22;;
81712;SDS011;71124;44.102;3.080;2023-08-17T00:54:57;2.90;;;2.10;;
81712;SDS011;71124;44.102;3.080;2023-08-17T00:57:23;5.03;;;2.17;;
81712;SDS011;71124;44.102;3.080;2023-08-17T00:59:48;4.90;;;2.72;;
81712;SDS011;71124;44.102;3.080;2023-08-17T01:02:13;4.50;;;2.40;;
81712;SDS011;71124;44.102;3.080;2023-08-17T01:04:39;4.07;;;2.13;;
81712;SDS011;71124;44.102;3.080;2023-08-17T01:07:04;3.60;;;2.30;;
81712;SDS011;71124;44.102;3.080;2023-08-17T01:09:29;2.80;;;2.10;;
81712;SDS011;71124;44.102;3.080;2023-08-17T01:12:00;3.67;;;2.30;;
81712;SDS011;71124;44.102;3.080;2023-08-17T01:14:27;6.63;;;2.90;;
81712;SDS011;71124;44.102;3.080;2023-08-17T01:19:57;6.50;;;2.83;;
81712;SDS011;71124;44.102;3.080;2023-08-17T01:22:23;3.95;;;2.50;;
81712;SDS011;71124;44.102;3.080;2023-08-17T01:24:49;5.25;;;2.55;;
81712;SDS011;71124;44.102;3.080;2023-08-17T01:27:14;4.30;;;2.40;;
81712;SDS011;71124;44.102;3.080;2023-08-17T01:29:39;6.03;;;3.00;;
81712;SDS011;71124;44.102;3.080;2023-08-17T01:32:39;3.20;;;2.65;;
81712;SDS011;71124;44.102;3.080;2023-08-17T01:34:57;3.83;;;2.63;;
81712;SDS011;71124;44.102;3.080;2023-08-17T01:37:25;3.90;;;2.40;;
81712;SDS011;71124;44.102;3.080;2023-08-17T01:39:53;4.80;;;2.53;;
81712;SDS011;71124;44.102;3.080;2023-08-17T01:42:19;2.70;;;2.47;;
81712;SDS011;71124;44.102;3.080;2023-08-17T01:44:45;3.13;;;2.30;;
81712;SDS011;71124;44.102;3.080;2023-08-17T01:47:10;3.95;;;2.40;;
81712;SDS011;71124;44.102;3.080;2023-08-17T01:49:36;4.53;;;2.60;;
81712;SDS011;71124;44.102;3.080;2023-08-17T01:52:01;4.20;;;2.53;;
81712;SDS011;71124;44.102;3.080;2023-08-17T01:54:27;4.97;;;2.50;;
81712;SDS011;71124;44.102;3.080;2023-08-17T01:56:53;5.63;;;2.60;;
81712;SDS011;71124;44.102;3.080;2023-08-17T01:59:18;3.03;;;2.25;;
81712;SDS011;71124;44.102;3.080;2023-08-17T02:01:43;2.90;;;2.37;;
81712;SDS011;71124;44.102;3.080;2023-08-17T02:04:08;5.50;;;2.60;;
81712;SDS011;71124;44.102;3.080;2023-08-17T02:06:34;4.00;;;2.50;;
81712;SDS011;71124;44.102;3.080;2023-08-17T02:08:59;2.53;;;2.30;;
81712;SDS011;71124;44.102;3.080;2023-08-17T02:11:24;2.57;;;2.30;;
81712;SDS011;71124;44.102;3.080;2023-08-17T02:13:50;3.27;;;2.40;;
81712;SDS011;71124;44.102;3.080;2023-08-17T02:16:15;3.87;;;2.60;;
81712;SDS011;71124;44.102;3.080;2023-08-17T02:18:40;2.93;;;2.47;;
81712;SDS011;71124;44.102;3.080;2023-08-17T02:21:05;4.03;;;2.42;;
81712;SDS011;71124;44.102;3.080;2023-08-17T02:23:31;4.50;;;2.77;;
81712;SDS011;71124;44.102;3.080;2023-08-17T02:25:56;4.20;;;2.57;;
81712;SDS011;71124;44.102;3.080;2023-08-17T02:28:21;5.03;;;2.67;;
81712;SDS011;71124;44.102;3.080;2023-08-17T02:30:46;2.87;;;2.30;;
81712;SDS011;71124;44.102;3.080;2023-08-17T02:33:13;2.85;;;2.40;;
81712;SDS011;71124;44.102;3.080;2023-08-17T02:35:38;5.13;;;2.53;;
81712;SDS011;71124;44.102;3.080;2023-08-17T02:38:03;4.90;;;3.10;;
81712;SDS011;71124;44.102;3.080;2023-08-17T02:40:28;3.60;;;2.43;;
81712;SDS011;71124;44.102;3.080;2023-08-17T02:42:54;5.43;;;3.00;;
81712;SDS011;71124;44.102;3.080;2023-08-17T02:45:19;2.80;;;2.30;;
81712;SDS011;71124;44.102;3.080;2023-08-17T02:47:44;3.60;;;2.70;;
81712;SDS011;71124;44.102;3.080;2023-08-17T02:50:09;3.40;;;2.37;;
81712;SDS011;71124;44.102;3.080;2023-08-17T02:52:35;3.97;;;2.40;;
81712;SDS011;71124;44.102;3.080;2023-08-17T02:55:00;3.13;;;2.70;;
81712;SDS011;71124;44.102;3.080;2023-08-17T02:57:25;2.97;;;2.50;;
81712;SDS011;71124;44.102;3.080;2023-08-17T02:59:50;2.90;;;2.60;;
81712;SDS011;71124;44.102;3.080;2023-08-17T03:02:16;4.67;;;2.77;;
81712;SDS011;71124;44.102;3.080;2023-08-17T03:04:41;3.67;;;2.63;;
81712;SDS011;71124;44.102;3.080;2023-08-17T03:07:07;6.67;;;2.80;;
81712;SDS011;71124;44.102;3.080;2023-08-17T03:09:32;3.92;;;2.55;;
81712;SDS011;71124;44.102;3.080;2023-08-17T03:11:57;3.73;;;3.03;;
81712;SDS011;71124;44.102;3.080;2023-08-17T03:14:23;6.97;;;2.67;;
81712;SDS011;71124;44.102;3.080;2023-08-17T03:16:48;3.60;;;2.73;;
81712;SDS011;71124;44.102;3.080;2023-08-17T03:19:13;4.03;;;2.50;;
81712;SDS011;71124;44.102;3.080;2023-08-17T03:21:38;4.13;;;2.60;;
81712;SDS011;71124;44.102;3.080;2023-08-17T03:24:04;3.83;;;2.60;;
81712;SDS011;71124;44.102;3.080;2023-08-17T03:26:29;4.18;;;2.40;;
81712;SDS011;71124;44.102;3.080;2023-08-17T03:28:55;4.60;;;2.60;;
81712;SDS011;71124;44.102;3.080;2023-08-17T03:31:22;3.80;;;2.47;;
81712;SDS011;71124;44.102;3.080;2023-08-17T03:33:48;2.85;;;2.22;;
81712;SDS011;71124;44.102;3.080;2023-08-17T03:36:14;4.65;;;2.60;;
81712;SDS011;71124;44.102;3.080;2023-08-17T03:38:39;2.73;;;2.17;;
81712;SDS011;71124;44.102;3.080;2023-08-17T03:41:05;4.03;;;2.40;;
81712;SDS011;71124;44.102;3.080;2023-08-17T03:43:30;2.97;;;2.40;;
81712;SDS011;71124;44.102;3.080;2023-08-17T03:45:55;3.73;;;2.60;;
81712;SDS011;71124;44.102;3.080;2023-08-17T03:48:20;4.47;;;2.60;;
81712;SDS011;71124;44.102;3.080;2023-08-17T03:50:50;3.65;;;2.65;;
81712;SDS011;71124;44.102;3.080;2023-08-17T03:53:15;5.40;;;2.60;;
81712;SDS011;71124;44.102;3.080;2023-08-17T03:55:45;3.93;;;2.80;;
81712;SDS011;71124;44.102;3.080;2023-08-17T03:58:10;4.88;;;2.78;;
81712;SDS011;71124;44.102;3.080;2023-08-17T04:00:35;3.50;;;2.80;;
81712;SDS011;71124;44.102;3.080;2023-08-17T04:03:00;3.37;;;2.53;;
81712;SDS011;71124;44.102;3.080;2023-08-17T04:05:27;3.57;;;2.57;;
81712;SDS011;71124;44.102;3.080;2023-08-17T04:07:52;5.03;;;3.00;;
81712;SDS011;71124;44.102;3.080;2023-08-17T04:10:17;4.97;;;2.80;;
81712;SDS011;71124;44.102;3.080;2023-08-17T04:12:42;2.80;;;2.37;;
81712;SDS011;71124;44.102;3.080;2023-08-17T04:15:08;5.83;;;3.47;;
81712;SDS011;71124;44.102;3.080;2023-08-17T04:17:33;3.17;;;2.45;;
81712;SDS011;71124;44.102;3.080;2023-08-17T04:19:58;4.23;;;2.83;;
81712;SDS011;71124;44.102;3.080;2023-08-17T04:22:24;4.33;;;2.53;;
81712;SDS011;71124;44.102;3.080;2023-08-17T04:24:49;4.40;;;2.80;;
81712;SDS011;71124;44.102;3.080;2023-08-17T04:27:14;4.17;;;3.00;;
81712;SDS011;71124;44.102;3.080;2023-08-17T04:29:39;3.10;;;2.80;;
81712;SDS011;71124;44.102;3.080;2023-08-17T04:32:05;3.75;;;2.50;;
81712;SDS011;71124;44.102;3.080;2023-08-17T04:34:30;4.53;;;2.78;;
81712;SDS011;71124;44.102;3.080;2023-08-17T04:36:56;3.67;;;2.60;;
81712;SDS011;71124;44.102;3.080;2023-08-17T04:39:21;3.23;;;2.80;;
81712;SDS011;71124;44.102;3.080;2023-08-17T04:41:46;3.50;;;2.70;;
81712;SDS011;71124;44.102;3.080;2023-08-17T04:44:11;3.20;;;2.80;;
81712;SDS011;71124;44.102;3.080;2023-08-17T04:46:37;3.47;;;2.47;;
81712;SDS011;71124;44.102;3.080;2023-08-17T04:49:02;3.13;;;2.40;;
81712;SDS011;71124;44.102;3.080;2023-08-17T04:51:27;4.10;;;2.80;;
81712;SDS011;71124;44.102;3.080;2023-08-17T04:53:52;3.93;;;2.70;;
81712;SDS011;71124;44.102;3.080;2023-08-17T04:56:18;3.87;;;2.70;;
81712;SDS011;71124;44.102;3.080;2023-08-17T04:58:43;9.32;;;2.95;;
81712;SDS011;71124;44.102;3.080;2023-08-17T05:01:08;3.50;;;2.77;;
81712;SDS011;71124;44.102;3.080;2023-08-17T05:03:35;4.22;;;2.55;;
81712;SDS011;71124;44.102;3.080;2023-08-17T05:06:00;5.43;;;2.90;;
81712;SDS011;71124;44.102;3.080;2023-08-17T05:08:25;4.38;;;2.80;;
81712;SDS011;71124;44.102;3.080;2023-08-17T05:10:51;3.60;;;2.80;;
81712;SDS011;71124;44.102;3.080;2023-08-17T05:13:16;5.07;;;2.90;;
81712;SDS011;71124;44.102;3.080;2023-08-17T05:15:41;5.27;;;2.97;;
81712;SDS011;71124;44.102;3.080;2023-08-17T05:18:07;4.53;;;3.00;;
81712;SDS011;71124;44.102;3.080;2023-08-17T05:20:33;5.35;;;2.80;;
81712;SDS011;71124;44.102;3.080;2023-08-17T05:22:58;5.32;;;3.13;;
81712;SDS011;71124;44.102;3.080;2023-08-17T05:25:23;5.38;;;3.40;;
81712;SDS011;71124;44.102;3.080;2023-08-17T05:27:51;4.13;;;2.80;;
81712;SDS011;71124;44.102;3.080;2023-08-17T05:30:16;4.68;;;3.00;;
81712;SDS011;71124;44.102;3.080;2023-08-17T05:32:41;4.22;;;3.15;;
81712;SDS011;71124;44.102;3.080;2023-08-17T05:35:07;5.17;;;3.07;;
81712;SDS011;71124;44.102;3.080;2023-08-17T05:37:32;4.60;;;2.90;;
81712;SDS011;71124;44.102;3.080;2023-08-17T05:39:57;5.73;;;2.93;;
81712;SDS011;71124;44.102;3.080;2023-08-17T05:42:23;3.83;;;3.00;;
81712;SDS011;71124;44.102;3.080;2023-08-17T05:44:48;3.88;;;3.00;;
81712;SDS011;71124;44.102;3.080;2023-08-17T05:47:14;3.30;;;2.70;;
81712;SDS011;71124;44.102;3.080;2023-08-17T05:49:42;5.65;;;3.15;;
81712;SDS011;71124;44.102;3.080;2023-08-17T05:52:07;4.27;;;3.00;;
81712;SDS011;71124;44.102;3.080;2023-08-17T05:54:33;5.70;;;3.03;;
81712;SDS011;71124;44.102;3.080;2023-08-17T05:56:58;5.53;;;3.00;;
81712;SDS011;71124;44.102;3.080;2023-08-17T05:59:23;4.80;;;3.10;;
81712;SDS011;71124;44.102;3.080;2023-08-17T06:01:48;5.43;;;3.42;;
81712;SDS011;71124;44.102;3.080;2023-08-17T06:04:14;5.70;;;3.37;;
81712;SDS011;71124;44.102;3.080;2023-08-17T06:06:39;6.67;;;3.20;;
81712;SDS011;71124;44.102;3.080;2023-08-17T06:09:04;5.53;;;3.03;;
81712;SDS011;71124;44.102;3.080;2023-08-17T06:11:29;7.47;;;3.70;;
81712;SDS011;71124;44.102;3.080;2023-08-17T06:13:55;5.57;;;3.03;;
81712;SDS011;71124;44.102;3.080;2023-08-17T06:16:20;7.53;;;3.10;;
81712;SDS011;71124;44.102;3.080;2023-08-17T06:18:45;4.00;;;2.90;;
81712;SDS011;71124;44.102;3.080;2023-08-17T06:21:11;3.92;;;3.00;;
81712;SDS011;71124;44.102;3.080;2023-08-17T06:23:36;4.43;;;3.20;;
81712;SDS011;71124;44.102;3.080;2023-08-17T06:26:01;4.13;;;3.23;;
81712;SDS011;71124;44.102;3.080;2023-08-17T06:28:26;5.10;;;2.97;;
81712;SDS011;71124;44.102;3.080;2023-08-17T06:30:52;5.65;;;3.40;;
81712;SDS011;71124;44.102;3.080;2023-08-17T06:33:18;5.18;;;3.05;;
81712;SDS011;71124;44.102;3.080;2023-08-17T06:35:43;6.97;;;3.40;;
81712;SDS011;71124;44.102;3.080;2023-08-17T06:38:09;3.40;;;2.60;;
81712;SDS011;71124;44.102;3.080;2023-08-17T06:40:34;4.40;;;3.13;;
81712;SDS011;71124;44.102;3.080;2023-08-17T06:42:59;4.57;;;3.10;;
81712;SDS011;71124;44.102;3.080;2023-08-17T06:45:25;4.07;;;3.20;;
81712;SDS011;71124;44.102;3.080;2023-08-17T06:47:50;4.20;;;3.30;;
81712;SDS011;71124;44.102;3.080;2023-08-17T06:50:15;4.60;;;2.90;;
81712;SDS011;71124;44.102;3.080;2023-08-17T06:52:40;4.80;;;3.60;;
81712;SDS011;71124;44.102;3.080;2023-08-17T06:55:06;6.72;;;3.15;;
81712;SDS011;71124;44.102;3.080;2023-08-17T06:57:31;5.75;;;3.45;;
81712;SDS011;71124;44.102;3.080;2023-08-17T06:59:56;5.67;;;3.60;;
81712;SDS011;71124;44.102;3.080;2023-08-17T07:02:21;3.70;;;3.27;;
81712;SDS011;71124;44.102;3.080;2023-08-17T07:04:47;4.03;;;3.03;;
81712;SDS011;71124;44.102;3.080;2023-08-17T07:07:12;4.90;;;3.10;;
81712;SDS011;71124;44.102;3.080;2023-08-17T07:09:39;6.20;;;3.40;;
81712;SDS011;71124;44.102;3.080;2023-08-17T07:12:04;5.25;;;3.28;;
81712;SDS011;71124;44.102;3.080;2023-08-17T07:14:29;5.38;;;3.35;;
81712;SDS011;71124;44.102;3.080;2023-08-17T07:16:55;4.73;;;3.27;;
81712;SDS011;71124;44.102;3.080;2023-08-17T07:19:21;7.43;;;3.50;;
81712;SDS011;71124;44.102;3.080;2023-08-17T07:21:46;4.45;;;3.20;;
81712;SDS011;71124;44.102;3.080;2023-08-17T07:24:12;3.95;;;3.20;;
81712;SDS011;71124;44.102;3.080;2023-08-17T07:26:38;5.25;;;3.38;;
81712;SDS011;71124;44.102;3.080;2023-08-17T07:29:03;4.03;;;3.13;;
81712;SDS011;71124;44.102;3.080;2023-08-17T07:31:29;4.53;;;3.20;;
81712;SDS011;71124;44.102;3.080;2023-08-17T07:33:54;5.97;;;3.40;;
81712;SDS011;71124;44.102;3.080;2023-08-17T07:36:19;5.27;;;3.20;;
81712;SDS011;71124;44.102;3.080;2023-08-17T07:38:44;6.60;;;3.43;;
81712;SDS011;71124;44.102;3.080;2023-08-17T07:41:10;4.97;;;3.33;;
81712;SDS011;71124;44.102;3.080;2023-08-17T07:43:35;6.53;;;3.53;;
81712;SDS011;71124;44.102;3.080;2023-08-17T07:46:00;3.50;;;3.20;;
81712;SDS011;71124;44.102;3.080;2023-08-17T07:48:25;5.03;;;3.77;;
81712;SDS011;71124;44.102;3.080;2023-08-17T07:50:51;6.27;;;3.33;;
81712;SDS011;71124;44.102;3.080;2023-08-17T07:53:17;4.85;;;3.35;;
81712;SDS011;71124;44.102;3.080;2023-08-17T07:55:42;6.35;;;3.42;;
81712;SDS011;71124;44.102;3.080;2023-08-17T07:58:07;5.07;;;3.40;;
81712;SDS011;71124;44.102;3.080;2023-08-17T08:00:33;5.57;;;3.05;;
81712;SDS011;71124;44.102;3.080;2023-08-17T08:02:58;6.47;;;3.13;;
81712;SDS011;71124;44.102;3.080;2023-08-17T08:05:23;5.83;;;3.70;;
81712;SDS011;71124;44.102;3.080;2023-08-17T08:07:48;4.17;;;3.50;;
81712;SDS011;71124;44.102;3.080;2023-08-17T08:10:14;5.00;;;3.43;;
81712;SDS011;71124;44.102;3.080;2023-08-17T08:12:39;3.97;;;3.08;;
81712;SDS011;71124;44.102;3.080;2023-08-17T08:15:04;4.30;;;2.93;;
81712;SDS011;71124;44.102;3.080;2023-08-17T08:17:30;6.43;;;3.38;;
81712;SDS011;71124;44.102;3.080;2023-08-17T08:19:55;4.23;;;3.43;;
81712;SDS011;71124;44.102;3.080;2023-08-17T08:22:20;4.43;;;3.10;;
81712;SDS011;71124;44.102;3.080;2023-08-17T08:24:45;5.90;;;3.43;;
81712;SDS011;71124;44.102;3.080;2023-08-17T08:27:11;4.35;;;3.03;;
81712;SDS011;71124;44.102;3.080;2023-08-17T08:29:36;3.90;;;3.38;;
81712;SDS011;71124;44.102;3.080;2023-08-17T08:32:02;3.77;;;3.00;;
81712;SDS011;71124;44.102;3.080;2023-08-17T08:34:28;5.88;;;3.00;;
81712;SDS011;71124;44.102;3.080;2023-08-17T08:36:53;6.83;;;3.27;;
81712;SDS011;71124;44.102;3.080;2023-08-17T08:39:18;6.27;;;3.30;;
81712;SDS011;71124;44.102;3.080;2023-08-17T08:41:44;4.57;;;3.08;;
81712;SDS011;71124;44.102;3.080;2023-08-17T08:44:09;4.90;;;3.38;;
81712;SDS011;71124;44.102;3.080;2023-08-17T08:46:34;7.60;;;3.30;;
81712;SDS011;71124;44.102;3.080;2023-08-17T08:49:02;4.25;;;3.30;;
81712;SDS011;71124;44.102;3.080;2023-08-17T08:51:28;6.05;;;3.15;;
81712;SDS011;71124;44.102;3.080;2023-08-17T08:54:03;4.70;;;3.10;;
81712;SDS011;71124;44.102;3.080;2023-08-17T08:56:32;5.93;;;3.28;;
81712;SDS011;71124;44.102;3.080;2023-08-17T08:58:59;8.15;;;3.22;;
81712;SDS011;71124;44.102;3.080;2023-08-17T09:01:26;5.40;;;3.15;;
81712;SDS011;71124;44.102;3.080;2023-08-17T09:03:51;6.53;;;3.42;;
81712;SDS011;71124;44.102;3.080;2023-08-17T09:06:17;6.22;;;3.15;;
81712;SDS011;71124;44.102;3.080;2023-08-17T09:08:43;4.93;;;3.05;;
81712;SDS011;71124;44.102;3.080;2023-08-17T09:11:08;5.80;;;3.05;;
81712;SDS011;71124;44.102;3.080;2023-08-17T09:13:34;5.10;;;2.80;;
81712;SDS011;71124;44.102;3.080;2023-08-17T09:15:59;4.37;;;2.90;;
81712;SDS011;71124;44.102;3.080;2023-08-17T09:18:26;4.63;;;2.97;;
81712;SDS011;71124;44.102;3.080;2023-08-17T09:20:51;5.30;;;2.80;;
81712;SDS011;71124;44.102;3.080;2023-08-17T09:23:21;6.38;;;2.45;;
81712;SDS011;71124;44.102;3.080;2023-08-17T09:25:47;7.05;;;2.70;;
81712;SDS011;71124;44.102;3.080;2023-08-17T09:28:13;6.10;;;2.85;;
81712;SDS011;71124;44.102;3.080;2023-08-17T09:30:49;6.57;;;2.75;;
81712;SDS011;71124;44.102;3.080;2023-08-17T09:33:16;3.85;;;1.90;;
81712;SDS011;71124;44.102;3.080;2023-08-17T09:35:42;5.13;;;2.10;;
81712;SDS011;71124;44.102;3.080;2023-08-17T09:38:07;2.90;;;1.58;;
81712;SDS011;71124;44.102;3.080;2023-08-17T09:40:32;2.50;;;1.60;;
81712;SDS011;71124;44.102;3.080;2023-08-17T09:42:57;1.67;;;1.30;;
81712;SDS011;71124;44.102;3.080;2023-08-17T09:45:23;2.08;;;1.40;;
81712;SDS011;71124;44.102;3.080;2023-08-17T09:47:49;3.13;;;1.50;;
81712;SDS011;71124;44.102;3.080;2023-08-17T09:50:14;4.63;;;1.50;;
81712;SDS011;71124;44.102;3.080;2023-08-17T09:52:39;3.33;;;1.30;;
81712;SDS011;71124;44.102;3.080;2023-08-17T09:55:05;2.58;;;1.38;;
81712;SDS011;71124;44.102;3.080;2023-08-17T09:57:32;2.08;;;1.40;;
81712;SDS011;71124;44.102;3.080;2023-08-17T09:59:58;1.65;;;1.35;;
81712;SDS011;71124;44.102;3.080;2023-08-17T10:02:23;2.40;;;1.67;;
81712;SDS011;71124;44.102;3.080;2023-08-17T10:04:49;2.58;;;1.48;;
81712;SDS011;71124;44.102;3.080;2023-08-17T10:07:15;1.60;;;1.23;;
81712;SDS011;71124;44.102;3.080;2023-08-17T10:09:43;2.95;;;1.20;;
81712;SDS011;71124;44.102;3.080;2023-08-17T10:12:12;2.15;;;1.30;;
81712;SDS011;71124;44.102;3.080;2023-08-17T10:14:42;3.83;;;1.40;;
81712;SDS011;71124;44.102;3.080;2023-08-17T10:22:08;1.67;;;1.40;;
81712;SDS011;71124;44.102;3.080;2023-08-17T10:24:36;2.53;;;1.40;;
81712;SDS011;71124;44.102;3.080;2023-08-17T10:27:03;2.08;;;1.25;;
81712;SDS011;71124;44.102;3.080;2023-08-17T10:29:29;2.40;;;1.50;;
81712;SDS011;71124;44.102;3.080;2023-08-17T10:31:55;2.60;;;1.50;;
81712;SDS011;71124;44.102;3.080;2023-08-17T10:34:22;2.00;;;1.65;;
81712;SDS011;71124;44.102;3.080;2023-08-17T10:36:47;4.83;;;1.60;;
81712;SDS011;71124;44.102;3.080;2023-08-17T10:39:17;2.17;;;1.60;;
81712;SDS011;71124;44.102;3.080;2023-08-17T10:41:46;1.95;;;1.58;;
81712;SDS011;71124;44.102;3.080;2023-08-17T10:44:11;2.13;;;1.40;;
81712;SDS011;71124;44.102;3.080;2023-08-17T10:46:37;2.72;;;1.45;;
81712;SDS011;71124;44.102;3.080;2023-08-17T10:49:04;1.77;;;1.50;;
81712;SDS011;71124;44.102;3.080;2023-08-17T10:51:33;2.20;;;1.67;;
81712;SDS011;71124;44.102;3.080;2023-08-17T10:53:59;2.03;;;1.50;;
81712;SDS011;71124;44.102;3.080;2023-08-17T10:56:29;2.63;;;1.38;;
81712;SDS011;71124;44.102;3.080;2023-08-17T10:58:54;2.13;;;1.30;;
81712;SDS011;71124;44.102;3.080;2023-08-17T11:01:32;3.80;;;1.38;;
81712;SDS011;71124;44.102;3.080;2023-08-17T11:04:10;3.85;;;1.60;;
81712;SDS011;71124;44.102;3.080;2023-08-17T11:06:36;2.20;;;1.30;;
81712;SDS011;71124;44.102;3.080;2023-08-17T11:09:05;2.03;;;1.30;;
81712;SDS011;71124;44.102;3.080;2023-08-17T11:11:31;2.20;;;1.40;;
81712;SDS011;71124;44.102;3.080;2023-08-17T11:13:56;4.20;;;1.47;;
81712;SDS011;71124;44.102;3.080;2023-08-17T11:16:22;2.03;;;1.48;;
81712;SDS011;71124;44.102;3.080;2023-08-17T11:18:48;2.60;;;1.90;;
81712;SDS011;71124;44.102;3.080;2023-08-17T11:21:14;2.95;;;1.52;;
81712;SDS011;71124;44.102;3.080;2023-08-17T11:23:40;2.03;;;1.63;;
81712;SDS011;71124;44.102;3.080;2023-08-17T11:26:06;3.08;;;1.40;;
81712;SDS011;71124;44.102;3.080;2023-08-17T11:28:32;3.47;;;1.40;;
81712;SDS011;71124;44.102;3.080;2023-08-17T11:31:02;2.03;;;1.40;;
81712;SDS011;71124;44.102;3.080;2023-08-17T11:33:28;1.63;;;1.50;;
81712;SDS011;71124;44.102;3.080;2023-08-17T11:35:54;3.25;;;1.40;;
81712;SDS011;71124;44.102;3.080;2023-08-17T11:38:20;1.65;;;1.30;;
81712;SDS011;71124;44.102;3.080;2023-08-17T11:40:45;3.97;;;1.40;;
81712;SDS011;71124;44.102;3.080;2023-08-17T11:43:10;1.80;;;1.40;;
81712;SDS011;71124;44.102;3.080;2023-08-17T11:45:36;2.33;;;1.30;;
81712;SDS011;71124;44.102;3.080;2023-08-17T11:48:01;3.23;;;1.60;;
81712;SDS011;71124;44.102;3.080;2023-08-17T11:50:26;2.90;;;1.50;;
81712;SDS011;71124;44.102;3.080;2023-08-17T11:52:52;2.73;;;1.63;;
81712;SDS011;71124;44.102;3.080;2023-08-17T11:55:17;2.20;;;1.60;;
81712;SDS011;71124;44.102;3.080;2023-08-17T11:57:44;2.88;;;1.50;;
81712;SDS011;71124;44.102;3.080;2023-08-17T12:00:09;2.10;;;1.40;;
81712;SDS011;71124;44.102;3.080;2023-08-17T12:02:35;2.05;;;1.40;;
81712;SDS011;71124;44.102;3.080;2023-08-17T12:05:02;1.85;;;1.50;;
81712;SDS011;71124;44.102;3.080;2023-08-17T12:07:28;2.58;;;1.55;;
81712;SDS011;71124;44.102;3.080;2023-08-17T12:09:54;2.40;;;1.50;;
81712;SDS011;71124;44.102;3.080;2023-08-17T12:12:21;6.10;;;2.20;;
81712;SDS011;71124;44.102;3.080;2023-08-17T12:14:47;4.97;;;1.60;;
81712;SDS011;71124;44.102;3.080;2023-08-17T12:17:16;3.83;;;1.50;;
81712;SDS011;71124;44.102;3.080;2023-08-17T12:19:42;2.13;;;1.60;;
81712;SDS011;71124;44.102;3.080;2023-08-17T12:22:07;2.78;;;1.48;;
81712;SDS011;71124;44.102;3.080;2023-08-17T12:24:32;1.58;;;1.48;;
81712;SDS011;71124;44.102;3.080;2023-08-17T12:26:59;1.63;;;1.40;;
81712;SDS011;71124;44.102;3.080;2023-08-17T12:29:26;1.80;;;1.50;;
81712;SDS011;71124;44.102;3.080;2023-08-17T12:31:51;1.73;;;1.50;;
81712;SDS011;71124;44.102;3.080;2023-08-17T12:34:17;2.35;;;1.60;;
81712;SDS011;71124;44.102;3.080;2023-08-17T12:36:43;2.40;;;1.57;;
81712;SDS011;71124;44.102;3.080;2023-08-17T12:39:08;2.47;;;1.40;;
81712;SDS011;71124;44.102;3.080;2023-08-17T12:41:33;2.67;;;1.53;;
81712;SDS011;71124;44.102;3.080;2023-08-17T12:43:58;2.70;;;1.50;;
81712;SDS011;71124;44.102;3.080;2023-08-17T12:46:24;4.30;;;1.40;;
81712;SDS011;71124;44.102;3.080;2023-08-17T12:48:50;2.92;;;1.30;;
81712;SDS011;71124;44.102;3.080;2023-08-17T12:51:15;3.07;;;1.50;;
81712;SDS011;71124;44.102;3.080;2023-08-17T12:53:41;1.87;;;1.40;;
81712;SDS011;71124;44.102;3.080;2023-08-17T12:56:06;5.40;;;1.50;;
81712;SDS011;71124;44.102;3.080;2023-08-17T12:58:31;1.83;;;1.30;;
81712;SDS011;71124;44.102;3.080;2023-08-17T13:00:57;3.03;;;1.40;;
81712;SDS011;71124;44.102;3.080;2023-08-17T13:03:22;3.50;;;1.55;;
81712;SDS011;71124;44.102;3.080;2023-08-17T13:05:47;3.20;;;1.40;;
81712;SDS011;71124;44.102;3.080;2023-08-17T13:08:13;2.37;;;1.50;;
81712;SDS011;71124;44.102;3.080;2023-08-17T13:10:38;1.93;;;1.40;;
81712;SDS011;71124;44.102;3.080;2023-08-17T13:13:03;2.10;;;1.40;;
81712;SDS011;71124;44.102;3.080;2023-08-17T13:15:29;2.05;;;1.50;;
81712;SDS011;71124;44.102;3.080;2023-08-17T13:17:54;2.97;;;1.40;;
81712;SDS011;71124;44.102;3.080;2023-08-17T13:20:19;2.00;;;1.50;;
81712;SDS011;71124;44.102;3.080;2023-08-17T13:22:45;2.33;;;1.47;;
81712;SDS011;71124;44.102;3.080;2023-08-17T13:25:10;2.30;;;1.40;;
81712;SDS011;71124;44.102;3.080;2023-08-17T13:27:35;1.83;;;1.42;;
81712;SDS011;71124;44.102;3.080;2023-08-17T13:30:01;3.63;;;1.40;;
81712;SDS011;71124;44.102;3.080;2023-08-17T13:32:26;6.03;;;1.90;;
81712;SDS011;71124;44.102;3.080;2023-08-17T13:34:51;3.55;;;1.60;;
81712;SDS011;71124;44.102;3.080;2023-08-17T13:37:17;2.73;;;1.30;;
81712;SDS011;71124;44.102;3.080;2023-08-17T13:39:42;3.28;;;1.40;;
81712;SDS011;71124;44.102;3.080;2023-08-17T13:42:08;3.35;;;1.50;;
81712;SDS011;71124;44.102;3.080;2023-08-17T13:44:33;2.67;;;1.40;;
81712;SDS011;71124;44.102;3.080;2023-08-17T13:46:58;1.97;;;1.60;;
81712;SDS011;71124;44.102;3.080;2023-08-17T13:49:24;2.37;;;1.50;;
81712;SDS011;71124;44.102;3.080;2023-08-17T13:51:49;3.73;;;1.70;;
81712;SDS011;71124;44.102;3.080;2023-08-17T13:54:14;2.77;;;1.37;;
81712;SDS011;71124;44.102;3.080;2023-08-17T13:56:39;2.87;;;1.50;;
81712;SDS011;71124;44.102;3.080;2023-08-17T13:59:05;2.83;;;1.40;;
81712;SDS011;71124;44.102;3.080;2023-08-17T14:01:30;3.30;;;1.67;;
81712;SDS011;71124;44.102;3.080;2023-08-17T14:03:55;3.30;;;1.53;;
81712;SDS011;71124;44.102;3.080;2023-08-17T14:06:20;4.17;;;1.60;;
81712;SDS011;71124;44.102;3.080;2023-08-17T14:08:46;2.23;;;1.53;;
81712;SDS011;71124;44.102;3.080;2023-08-17T14:11:11;3.80;;;1.33;;
81712;SDS011;71124;44.102;3.080;2023-08-17T14:13:36;3.67;;;1.50;;
81712;SDS011;71124;44.102;3.080;2023-08-17T14:16:03;2.53;;;1.40;;
81712;SDS011;71124;44.102;3.080;2023-08-17T14:18:28;3.50;;;1.40;;
81712;SDS011;71124;44.102;3.080;2023-08-17T14:20:53;3.07;;;1.30;;
81712;SDS011;71124;44.102;3.080;2023-08-17T14:23:19;2.63;;;1.40;;
81712;SDS011;71124;44.102;3.080;2023-08-17T14:25:44;3.45;;;1.45;;
81712;SDS011;71124;44.102;3.080;2023-08-17T14:28:09;3.43;;;1.27;;
81712;SDS011;71124;44.102;3.080;2023-08-17T14:30:34;1.40;;;1.20;;
81712;SDS011;71124;44.102;3.080;2023-08-17T14:33:00;2.13;;;1.53;;
81712;SDS011;71124;44.102;3.080;2023-08-17T14:35:26;4.63;;;1.60;;
81712;SDS011;71124;44.102;3.080;2023-08-17T14:37:51;2.53;;;1.40;;
81712;SDS011;71124;44.102;3.080;2023-08-17T14:40:16;3.30;;;1.77;;
81712;SDS011;71124;44.102;3.080;2023-08-17T14:42:42;2.42;;;1.50;;
81712;SDS011;71124;44.102;3.080;2023-08-17T14:45:07;1.43;;;1.30;;
81712;SDS011;71124;44.102;3.080;2023-08-17T14:47:33;3.05;;;1.33;;